createdAt,value
2019-05-26T00:00:41.135Z,3.90
2019-05-26T00:03:10.718Z,3.93
2019-05-26T00:05:40.186Z,3.67
2019-05-26T00:08:09.702Z,3.90
2019-05-26T00:10:39.115Z,3.90
2019-05-26T00:13:08.582Z,3.83
2019-05-26T00:15:38.101Z,4.40
2019-05-26T00:18:07.477Z,4.27
2019-05-26T00:20:37.193Z,3.90
2019-05-26T00:23:06.556Z,3.73
2019-05-26T00:25:35.980Z,3.87
2019-05-26T00:28:05.453Z,4.20
2019-05-26T00:30:34.970Z,3.67
2019-05-26T00:33:04.478Z,3.93
2019-05-26T00:35:33.933Z,4.27
2019-05-26T00:38:03.359Z,3.90
2019-05-26T00:40:32.736Z,3.70
2019-05-26T00:43:02.222Z,3.70
2019-05-26T00:45:31.900Z,3.67
2019-05-26T00:48:01.340Z,4.20
2019-05-26T00:50:30.821Z,4.30
2019-05-26T00:53:00.310Z,4.27
2019-05-26T00:55:29.684Z,3.93
2019-05-26T00:57:59.105Z,4.17
2019-05-26T01:00:42.285Z,4.30
2019-05-26T01:03:12.296Z,4.33
2019-05-26T01:05:41.769Z,4.80
2019-05-26T01:08:11.407Z,3.97
2019-05-26T01:10:41.038Z,4.20
2019-05-26T01:13:10.437Z,5.07
2019-05-26T01:15:39.849Z,4.53
2019-05-26T01:18:09.317Z,5.10
2019-05-26T01:20:38.826Z,5.00
2019-05-26T01:23:08.278Z,5.37
2019-05-26T01:25:37.743Z,4.60
2019-05-26T01:28:07.282Z,5.63
2019-05-26T01:30:38.279Z,5.43
2019-05-26T01:33:08.008Z,5.60
2019-05-26T01:35:41.077Z,6.10
2019-05-26T01:38:23.189Z,5.33
2019-05-26T01:40:43.204Z,6.20
2019-05-26T01:43:12.557Z,6.80
2019-05-26T01:45:42.041Z,7.33
2019-05-26T01:48:11.409Z,6.87
2019-05-26T01:50:40.795Z,5.87
2019-05-26T01:53:10.190Z,6.33
2019-05-26T01:55:39.634Z,6.40
2019-05-26T01:58:09.019Z,6.27
2019-05-26T02:00:38.558Z,6.13
2019-05-26T02:03:07.962Z,6.27
2019-05-26T02:05:37.382Z,5.37
2019-05-26T02:08:06.842Z,4.27
2019-05-26T02:10:36.249Z,5.80
2019-05-26T02:13:05.762Z,6.30
2019-05-26T02:15:35.134Z,5.43
2019-05-26T02:18:04.536Z,5.93
2019-05-26T02:20:33.955Z,5.60
2019-05-26T02:23:03.385Z,5.37
2019-05-26T02:25:32.751Z,5.40
2019-05-26T02:28:02.125Z,5.23
2019-05-26T02:30:31.539Z,5.00
2019-05-26T02:33:00.934Z,4.50
2019-05-26T02:35:30.261Z,4.53
2019-05-26T02:37:59.676Z,4.70
2019-05-26T02:40:29.248Z,5.13
2019-05-26T02:42:58.617Z,5.80
2019-05-26T02:45:28.124Z,5.23
2019-05-26T02:47:57.615Z,4.53
2019-05-26T02:50:27.276Z,6.50
2019-05-26T02:52:56.641Z,5.43
2019-05-26T02:55:26.551Z,5.13
2019-05-26T02:57:55.914Z,5.87
2019-05-26T03:00:42.466Z,5.60
2019-05-26T03:03:12.969Z,5.27
2019-05-26T03:05:44.791Z,5.53
2019-05-26T03:08:14.523Z,3.40
2019-05-26T03:10:44.037Z,5.30
2019-05-26T03:13:17.722Z,5.20
2019-05-26T03:15:48.147Z,5.20
2019-05-26T03:18:18.651Z,5.47
2019-05-26T03:20:48.191Z,5.40
2019-05-26T03:23:17.979Z,4.97
2019-05-26T03:25:47.470Z,5.60
2019-05-26T03:28:16.818Z,5.63
2019-05-26T03:30:46.304Z,4.93
2019-05-26T03:33:15.748Z,5.13
2019-05-26T03:35:45.131Z,4.23
2019-05-26T03:38:14.525Z,4.37
2019-05-26T03:40:43.913Z,3.73
2019-05-26T03:43:13.279Z,3.80
2019-05-26T03:46:17.547Z,4.00
2019-05-26T03:48:47.184Z,3.43
2019-05-26T03:51:16.785Z,2.97
2019-05-26T03:53:46.130Z,2.50
2019-05-26T03:56:15.522Z,2.40
2019-05-26T03:58:45.075Z,2.67
2019-05-26T04:01:14.458Z,2.90
2019-05-26T04:03:43.886Z,2.80
2019-05-26T04:06:13.225Z,2.23
2019-05-26T04:08:42.593Z,1.97
2019-05-26T04:11:11.991Z,2.23
2019-05-26T04:13:41.371Z,2.10
2019-05-26T04:16:10.719Z,2.30
2019-05-26T04:18:40.135Z,1.90
2019-05-26T04:21:09.515Z,2.10
2019-05-26T04:23:38.864Z,2.30
2019-05-26T04:26:08.281Z,1.80
2019-05-26T04:28:37.661Z,1.57
2019-05-26T04:31:07.092Z,1.90
2019-05-26T04:33:36.508Z,1.90
2019-05-26T04:36:05.843Z,1.90
2019-05-26T04:38:35.194Z,1.90
2019-05-26T04:41:04.582Z,2.13
2019-05-26T04:43:33.938Z,1.70
2019-05-26T04:46:03.335Z,1.70
2019-05-26T04:48:32.667Z,1.80
2019-05-26T04:51:02.021Z,1.57
2019-05-26T04:53:31.469Z,1.40
2019-05-26T04:56:00.855Z,1.40
2019-05-26T04:58:30.223Z,1.33
2019-05-26T05:00:59.628Z,1.40
2019-05-26T05:03:29.037Z,1.07
2019-05-26T05:05:58.410Z,1.30
2019-05-26T05:08:27.755Z,1.40
2019-05-26T05:10:57.173Z,1.27
2019-05-26T05:13:26.535Z,1.60
2019-05-26T05:15:55.922Z,1.60
2019-05-26T05:18:25.379Z,1.97
2019-05-26T05:20:54.725Z,1.70
2019-05-26T05:23:24.091Z,1.57
2019-05-26T05:25:53.589Z,1.47
2019-05-26T05:28:23.768Z,1.60
2019-05-26T05:30:53.203Z,2.03
2019-05-26T05:33:22.577Z,1.97
2019-05-26T05:35:51.936Z,2.30
2019-05-26T05:38:21.308Z,2.73
2019-05-26T05:40:59.392Z,2.33
2019-05-26T05:43:21.742Z,2.47
2019-05-26T05:45:51.135Z,2.17
2019-05-26T05:48:20.639Z,2.20
2019-05-26T05:50:50.071Z,2.67
2019-05-26T05:53:19.637Z,3.23
2019-05-26T05:55:49.053Z,3.17
2019-05-26T05:58:18.673Z,3.00
2019-05-26T06:00:48.369Z,2.80
2019-05-26T06:03:18.785Z,2.63
2019-05-26T06:05:48.383Z,3.10
2019-05-26T06:08:17.891Z,2.77
2019-05-26T06:10:47.427Z,2.53
2019-05-26T06:13:16.931Z,2.50
2019-05-26T06:15:46.320Z,2.90
2019-05-26T06:18:15.870Z,3.40
2019-05-26T06:20:45.370Z,4.07
2019-05-26T06:23:14.802Z,3.30
2019-05-26T06:25:44.281Z,3.17
2019-05-26T06:28:13.839Z,2.97
2019-05-26T06:30:43.407Z,2.50
2019-05-26T06:33:12.852Z,2.70
2019-05-26T06:35:42.366Z,2.47
2019-05-26T06:38:11.872Z,2.60
2019-05-26T06:40:41.492Z,2.80
2019-05-26T06:43:10.854Z,2.80
2019-05-26T06:45:40.325Z,2.90
2019-05-26T06:48:09.784Z,2.33
2019-05-26T06:50:39.214Z,2.40
2019-05-26T06:53:08.607Z,2.37
2019-05-26T06:55:37.987Z,2.20
2019-05-26T06:58:07.404Z,1.50
2019-05-26T07:00:36.835Z,2.33
2019-05-26T07:03:06.449Z,1.73
2019-05-26T07:05:35.916Z,1.17
2019-05-26T07:08:05.506Z,1.60
2019-05-26T07:10:34.967Z,1.83
2019-05-26T07:13:04.661Z,2.20
2019-05-26T07:15:34.079Z,2.67
2019-05-26T07:18:03.461Z,3.30
2019-05-26T07:20:32.960Z,2.97
2019-05-26T07:23:02.594Z,2.67
2019-05-26T07:25:32.278Z,2.70
2019-05-26T07:28:01.650Z,2.63
2019-05-26T07:30:31.162Z,3.20
2019-05-26T07:33:00.742Z,3.30
2019-05-26T07:35:32.907Z,3.40
2019-05-26T07:38:01.658Z,3.47
2019-05-26T07:40:31.056Z,2.80
2019-05-26T07:43:00.465Z,2.30
2019-05-26T07:45:29.918Z,2.27
2019-05-26T07:47:59.364Z,2.70
2019-05-26T07:50:28.976Z,2.60
2019-05-26T07:52:58.402Z,2.50
2019-05-26T07:55:27.875Z,3.00
2019-05-26T07:57:57.208Z,2.77
2019-05-26T08:00:26.715Z,3.10
2019-05-26T08:02:56.151Z,3.63
2019-05-26T08:05:25.604Z,3.77
2019-05-26T08:08:09.555Z,3.37
2019-05-26T08:10:26.024Z,3.13
2019-05-26T08:12:55.383Z,3.90
2019-05-26T08:15:24.741Z,3.40
2019-05-26T08:17:54.136Z,3.50
2019-05-26T08:20:23.616Z,3.27
2019-05-26T08:22:52.980Z,2.73
2019-05-26T08:25:22.369Z,3.27
2019-05-26T08:27:51.750Z,2.80
2019-05-26T08:30:21.483Z,3.00
2019-05-26T08:32:50.851Z,2.17
2019-05-26T08:35:20.213Z,1.77
2019-05-26T08:37:49.528Z,1.70
2019-05-26T08:40:19.190Z,1.57
2019-05-26T08:42:50.001Z,1.63
2019-05-26T08:45:21.680Z,2.07
2019-05-26T08:47:51.160Z,1.30
2019-05-26T08:50:21.431Z,1.63
2019-05-26T08:52:50.844Z,1.63
2019-05-26T08:55:20.420Z,1.30
2019-05-26T08:57:49.831Z,1.30
2019-05-26T09:00:21.054Z,2.07
2019-05-26T09:02:50.439Z,2.10
2019-05-26T09:05:20.245Z,2.07
2019-05-26T09:07:49.607Z,2.00
2019-05-26T09:10:19.302Z,2.27
2019-05-26T09:13:00.215Z,2.20
2019-05-26T09:15:20.654Z,2.23
2019-05-26T09:17:50.007Z,2.23
2019-05-26T09:20:19.681Z,2.53
2019-05-26T09:22:49.057Z,1.97
2019-05-26T09:25:19.132Z,2.27
2019-05-26T09:27:48.463Z,2.00
2019-05-26T09:30:18.281Z,2.50
2019-05-26T09:32:47.620Z,2.23
2019-05-26T09:35:17.054Z,2.43
2019-05-26T09:37:46.405Z,2.20
2019-05-26T09:40:15.833Z,2.50
2019-05-26T09:42:45.178Z,2.30
2019-05-26T09:45:14.805Z,2.10
2019-05-26T09:47:44.136Z,2.43
2019-05-26T09:50:14.885Z,2.33
2019-05-26T09:52:44.239Z,2.17
2019-05-26T09:55:13.875Z,3.20
2019-05-26T09:57:43.247Z,3.27
2019-05-26T10:00:16.039Z,2.73
2019-05-26T10:02:44.664Z,2.83
2019-05-26T10:05:14.195Z,2.60
2019-05-26T10:07:43.626Z,3.20
2019-05-26T10:10:14.474Z,3.63
2019-05-26T10:12:43.843Z,4.40
2019-05-26T10:15:13.713Z,4.20
2019-05-26T10:17:43.119Z,4.70
2019-05-26T10:20:12.800Z,3.73
2019-05-26T10:22:42.134Z,3.63
2019-05-26T10:25:11.915Z,4.93
2019-05-26T10:27:41.303Z,6.13
2019-05-26T10:30:12.478Z,6.10
2019-05-26T10:32:41.872Z,5.03
2019-05-26T10:35:12.263Z,6.67
2019-05-26T10:37:41.588Z,5.23
2019-05-26T10:40:11.517Z,5.57
2019-05-26T10:42:40.889Z,4.57
2019-05-26T10:45:10.920Z,4.80
2019-05-26T10:47:40.333Z,6.47
2019-05-26T10:50:10.493Z,4.83
2019-05-26T10:52:39.854Z,6.40
2019-05-26T10:55:09.400Z,5.13
2019-05-26T10:57:38.847Z,4.77
2019-05-26T11:00:09.204Z,5.00
2019-05-26T11:02:38.749Z,5.40
2019-05-26T11:05:08.701Z,6.57
2019-05-26T11:07:38.060Z,5.93
2019-05-26T11:10:08.017Z,6.00
2019-05-26T11:12:37.402Z,6.40
2019-05-26T11:15:09.406Z,6.23
2019-05-26T11:17:38.895Z,4.83
2019-05-26T11:20:08.750Z,4.60
2019-05-26T11:22:38.079Z,5.67
2019-05-26T11:25:08.322Z,5.60
2019-05-26T11:27:37.681Z,4.57
2019-05-26T11:30:09.140Z,3.67
2019-05-26T11:32:38.480Z,4.60
2019-05-26T11:35:08.238Z,3.20
2019-05-26T11:37:37.646Z,3.90
2019-05-26T11:40:08.431Z,3.60
2019-05-26T11:42:37.776Z,3.63
2019-05-26T11:45:07.449Z,3.77
2019-05-26T11:47:36.813Z,4.23
2019-05-26T11:50:06.496Z,4.60
2019-05-26T11:52:35.917Z,5.50
2019-05-26T11:55:05.745Z,7.17
2019-05-26T11:57:36.778Z,6.20
2019-05-26T12:00:07.259Z,7.47
2019-05-26T12:02:36.725Z,7.60
2019-05-26T12:05:09.407Z,8.17
2019-05-26T12:07:38.805Z,10.30
2019-05-26T12:10:13.587Z,9.30
2019-05-26T12:12:40.677Z,8.30
2019-05-26T12:15:11.636Z,9.33
2019-05-26T12:17:40.988Z,9.83
2019-05-26T12:20:12.930Z,8.67
2019-05-26T12:22:42.281Z,9.27
2019-05-26T12:25:12.305Z,6.13
2019-05-26T12:27:41.672Z,9.57
2019-05-26T12:30:13.035Z,8.20
2019-05-26T12:32:42.400Z,7.43
2019-05-26T12:35:12.590Z,6.13
2019-05-26T12:37:41.909Z,6.80
2019-05-26T12:40:11.793Z,9.50
2019-05-26T12:42:41.159Z,6.57
2019-05-26T12:45:10.917Z,9.47
2019-05-26T12:47:40.388Z,8.10
2019-05-26T12:50:10.308Z,6.40
2019-05-26T12:52:39.625Z,6.40
2019-05-26T12:55:10.082Z,6.50
2019-05-26T12:57:39.719Z,6.57
2019-05-26T13:00:09.952Z,5.43
2019-05-26T13:02:40.500Z,3.93
2019-05-26T13:05:10.532Z,4.67
2019-05-26T13:07:40.076Z,5.20
2019-05-26T13:10:09.832Z,5.00
2019-05-26T13:12:39.189Z,4.80
2019-05-26T13:15:10.151Z,3.90
2019-05-26T13:17:39.459Z,3.50
2019-05-26T13:20:09.827Z,4.10
2019-05-26T13:22:40.623Z,3.27
2019-05-26T13:25:11.197Z,3.00
2019-05-26T13:27:40.695Z,4.00
2019-05-26T13:30:11.707Z,3.63
2019-05-26T13:32:41.070Z,3.80
2019-05-26T13:35:11.206Z,4.57
2019-05-26T13:37:41.101Z,5.60
2019-05-26T13:40:10.442Z,7.43
2019-05-26T13:42:39.812Z,7.93
2019-05-26T13:45:21.812Z,7.47
2019-05-26T13:47:41.350Z,8.90
2019-05-26T13:50:11.386Z,11.47
2019-05-26T13:52:40.736Z,9.97
2019-05-26T13:55:10.658Z,7.43
2019-05-26T13:57:40.006Z,10.00
2019-05-26T14:00:10.771Z,10.43
2019-05-26T14:02:40.103Z,11.53
2019-05-26T14:05:09.809Z,15.63
2019-05-26T14:07:39.164Z,13.23
2019-05-26T14:10:09.106Z,12.00
2019-05-26T14:12:38.471Z,10.30
2019-05-26T14:15:09.560Z,9.77
2019-05-26T14:17:39.784Z,11.33
2019-05-26T14:20:10.191Z,9.63
2019-05-26T14:22:39.462Z,8.73
2019-05-26T14:25:09.297Z,10.10
2019-05-26T14:27:38.673Z,7.57
2019-05-26T14:30:08.594Z,8.20
2019-05-26T14:32:37.937Z,8.23
2019-05-26T14:35:07.524Z,7.17
2019-05-26T14:37:36.841Z,7.20
2019-05-26T14:40:06.951Z,5.87
2019-05-26T14:42:36.302Z,5.93
2019-05-26T14:45:06.287Z,5.80
2019-05-26T14:47:35.664Z,5.77
2019-05-26T14:50:05.368Z,5.33
2019-05-26T14:52:34.808Z,5.37
2019-05-26T14:55:04.340Z,4.63
2019-05-26T14:57:33.719Z,5.10
2019-05-26T15:00:03.106Z,4.20
2019-05-26T15:02:32.442Z,5.33
2019-05-26T15:05:01.861Z,4.00
2019-05-26T15:07:31.221Z,4.30
2019-05-26T15:10:00.527Z,3.63
2019-05-26T15:12:29.913Z,3.63
2019-05-26T15:14:59.238Z,3.33
2019-05-26T15:17:28.582Z,2.93
2019-05-26T15:19:57.982Z,2.80
2019-05-26T15:22:27.327Z,2.47
2019-05-26T15:24:56.690Z,3.10
2019-05-26T15:27:26.089Z,3.40
2019-05-26T15:29:55.452Z,3.10
2019-05-26T15:32:24.785Z,2.70
2019-05-26T15:34:54.177Z,2.57
2019-05-26T15:37:23.537Z,3.57
2019-05-26T15:39:52.923Z,3.53
2019-05-26T15:42:22.304Z,3.47
2019-05-26T15:44:51.695Z,2.97
2019-05-26T15:47:21.075Z,3.33
2019-05-26T15:49:50.462Z,3.20
2019-05-26T15:52:19.846Z,3.40
2019-05-26T15:54:49.186Z,3.53
2019-05-26T15:57:18.643Z,3.00
2019-05-26T15:59:48.030Z,2.63
2019-05-26T16:02:17.397Z,2.80
2019-05-26T16:04:46.789Z,2.63
2019-05-26T16:07:16.161Z,2.17
2019-05-26T16:09:45.533Z,3.10
2019-05-26T16:12:14.943Z,3.53
2019-05-26T16:14:44.328Z,2.90
2019-05-26T16:17:13.732Z,2.57
2019-05-26T16:19:43.110Z,2.60
2019-05-26T16:22:12.479Z,2.73
2019-05-26T16:24:41.864Z,2.87
2019-05-26T16:27:19.164Z,2.50
2019-05-26T16:29:42.285Z,2.17
2019-05-26T16:32:11.690Z,3.07
2019-05-26T16:34:41.043Z,2.33
2019-05-26T16:37:10.427Z,2.27
2019-05-26T16:39:39.846Z,2.83
2019-05-26T16:42:09.170Z,2.87
2019-05-26T16:44:38.530Z,2.40
2019-05-26T16:47:07.929Z,2.30
2019-05-26T16:49:37.316Z,2.70
2019-05-26T16:52:06.762Z,2.53
2019-05-26T16:54:36.123Z,3.50
2019-05-26T16:57:05.590Z,2.70
2019-05-26T16:59:34.969Z,3.00
2019-05-26T17:02:04.472Z,3.40
2019-05-26T17:04:33.843Z,2.77
2019-05-26T17:07:03.223Z,3.50
2019-05-26T17:09:32.634Z,3.70
2019-05-26T17:12:02.021Z,3.37
2019-05-26T17:14:31.375Z,2.83
2019-05-26T17:17:14.252Z,2.73
2019-05-26T17:19:31.838Z,2.20
2019-05-26T17:22:01.199Z,3.03
2019-05-26T17:24:30.610Z,2.73
2019-05-26T17:26:59.986Z,2.80
2019-05-26T17:29:29.390Z,2.73
2019-05-26T17:31:58.750Z,2.80
2019-05-26T17:34:28.094Z,2.93
2019-05-26T17:36:57.492Z,2.63
2019-05-26T17:39:26.834Z,3.30
2019-05-26T17:41:56.174Z,3.40
2019-05-26T17:44:25.552Z,2.87
2019-05-26T17:46:54.945Z,3.80
2019-05-26T17:49:24.303Z,3.33
2019-05-26T17:51:53.690Z,3.00
2019-05-26T17:54:23.059Z,2.87
2019-05-26T17:56:52.468Z,3.00
2019-05-26T17:59:21.890Z,2.50
2019-05-26T18:01:51.261Z,2.27
2019-05-26T18:04:20.632Z,3.00
2019-05-26T18:06:50.033Z,3.37
2019-05-26T18:09:19.405Z,3.30
2019-05-26T18:11:48.782Z,2.77
2019-05-26T18:14:18.198Z,2.43
2019-05-26T18:16:47.528Z,2.90
2019-05-26T18:19:16.908Z,2.80
2019-05-26T18:21:46.334Z,2.70
2019-05-26T18:24:15.745Z,2.60
2019-05-26T18:26:45.105Z,3.47
2019-05-26T18:29:14.469Z,3.00
2019-05-26T18:31:44.229Z,2.90
2019-05-26T18:34:13.863Z,3.40
2019-05-26T18:36:43.232Z,2.87
2019-05-26T18:39:12.625Z,3.07
2019-05-26T18:41:41.972Z,3.30
2019-05-26T18:44:11.338Z,3.13
2019-05-26T18:46:40.748Z,2.83
2019-05-26T18:49:10.125Z,2.80
2019-05-26T18:51:39.528Z,3.07
2019-05-26T18:54:08.935Z,2.90
2019-05-26T18:56:38.296Z,3.03
2019-05-26T18:59:07.719Z,3.13
2019-05-26T19:01:37.161Z,3.17
2019-05-26T19:04:06.545Z,3.30
2019-05-26T19:06:35.957Z,2.67
2019-05-26T19:09:08.098Z,3.07
2019-05-26T19:11:37.619Z,2.90
2019-05-26T19:14:07.072Z,3.27
2019-05-26T19:16:36.461Z,3.33
2019-05-26T19:19:05.937Z,2.87
2019-05-26T19:21:35.420Z,3.40
2019-05-26T19:24:04.945Z,3.73
2019-05-26T19:26:34.296Z,2.93
2019-05-26T19:29:03.679Z,2.87
2019-05-26T19:31:33.062Z,3.10
2019-05-26T19:34:03.555Z,3.30
2019-05-26T19:36:32.912Z,3.33
2019-05-26T19:39:02.295Z,3.30
2019-05-26T19:41:31.692Z,3.77
2019-05-26T19:44:01.030Z,3.80
2019-05-26T19:46:30.378Z,2.90
2019-05-26T19:48:59.781Z,3.20
2019-05-26T19:51:29.124Z,4.03
2019-05-26T19:53:58.478Z,3.63
2019-05-26T19:56:27.954Z,3.50
2019-05-26T19:58:57.746Z,3.90
2019-05-26T20:01:27.127Z,4.10
2019-05-26T20:03:56.543Z,3.90
2019-05-26T20:06:25.897Z,3.83
2019-05-26T20:08:55.289Z,3.07
2019-05-26T20:11:24.672Z,3.60
2019-05-26T20:13:54.078Z,4.20
2019-05-26T20:16:23.415Z,3.37
2019-05-26T20:18:52.761Z,4.73
2019-05-26T20:21:22.168Z,4.53
2019-05-26T20:23:51.539Z,3.90
2019-05-26T20:26:20.898Z,3.17
2019-05-26T20:28:50.238Z,3.40
2019-05-26T20:31:19.590Z,3.70
2019-05-26T20:33:48.975Z,3.93
2019-05-26T20:36:18.368Z,3.80
2019-05-26T20:38:47.771Z,4.33
2019-05-26T20:41:17.162Z,3.70
2019-05-26T20:43:46.504Z,3.80
2019-05-26T20:46:15.914Z,4.47
2019-05-26T20:48:45.282Z,3.83
2019-05-26T20:51:14.656Z,4.57
2019-05-26T20:53:44.072Z,4.27
2019-05-26T20:56:13.435Z,3.93
2019-05-26T20:58:42.815Z,3.77
2019-05-26T21:01:13.211Z,4.03
2019-05-26T21:03:42.922Z,4.10
2019-05-26T21:06:12.296Z,4.20
2019-05-26T21:08:41.654Z,3.40
2019-05-26T21:11:11.076Z,4.10
2019-05-26T21:13:40.727Z,4.03
2019-05-26T21:16:10.106Z,4.53
2019-05-26T21:18:39.459Z,4.13
2019-05-26T21:21:08.810Z,3.90
2019-05-26T21:23:39.187Z,3.57
2019-05-26T21:26:08.652Z,4.17
2019-05-26T21:28:38.038Z,3.67
2019-05-26T21:31:07.596Z,4.03
2019-05-26T21:33:37.034Z,4.30
2019-05-26T21:36:09.459Z,4.00
2019-05-26T21:38:38.810Z,5.10
2019-05-26T21:41:08.192Z,4.67
2019-05-26T21:43:37.540Z,4.20
2019-05-26T21:46:06.899Z,4.37
2019-05-26T21:48:36.281Z,4.20
2019-05-26T21:51:05.672Z,4.00
2019-05-26T21:53:35.030Z,3.93
2019-05-26T21:56:04.404Z,4.13
2019-05-26T21:58:33.805Z,3.77
2019-05-26T22:01:04.361Z,4.07
2019-05-26T22:03:34.002Z,3.70
2019-05-26T22:06:03.425Z,3.87
2019-05-26T22:08:32.805Z,3.50
2019-05-26T22:11:02.218Z,3.50
2019-05-26T22:13:31.700Z,3.97
2019-05-26T22:16:01.718Z,3.40
2019-05-26T22:18:31.083Z,3.23
2019-05-26T22:21:00.475Z,3.47
2019-05-26T22:23:29.829Z,3.47
2019-05-26T22:26:00.284Z,3.73
2019-05-26T22:28:29.666Z,3.33
2019-05-26T22:30:59.078Z,3.17
2019-05-26T22:33:28.467Z,3.50
2019-05-26T22:35:57.856Z,3.93
2019-05-26T22:38:27.225Z,3.63
2019-05-26T22:40:56.619Z,3.20
2019-05-26T22:43:25.974Z,3.23
2019-05-26T22:45:55.332Z,3.57
2019-05-26T22:48:24.716Z,4.17
2019-05-26T22:50:54.068Z,3.40
2019-05-26T22:53:23.430Z,3.10
2019-05-26T22:55:52.825Z,4.20
2019-05-26T22:58:22.223Z,3.77
2019-05-26T23:00:51.584Z,4.07
2019-05-26T23:03:20.989Z,3.53
2019-05-26T23:05:50.355Z,3.47
2019-05-26T23:08:19.779Z,3.60
2019-05-26T23:10:49.177Z,3.60
2019-05-26T23:13:18.613Z,3.57
2019-05-26T23:15:47.981Z,4.00
2019-05-26T23:18:17.324Z,3.73
2019-05-26T23:20:46.689Z,3.77
2019-05-26T23:23:16.062Z,3.50
2019-05-26T23:25:45.462Z,3.63
2019-05-26T23:28:14.896Z,3.90
2019-05-26T23:30:44.269Z,3.67
2019-05-26T23:33:13.635Z,3.77
2019-05-26T23:35:43.014Z,3.50
2019-05-26T23:38:12.374Z,3.27
2019-05-26T23:40:41.738Z,2.60
2019-05-26T23:43:11.125Z,3.40
2019-05-26T23:45:40.489Z,2.90
2019-05-26T23:48:09.859Z,3.00
2019-05-26T23:50:39.250Z,2.70
2019-05-26T23:53:08.640Z,2.60
2019-05-26T23:55:38.001Z,3.43
2019-05-26T23:58:07.403Z,3.67
